JM-0010 weather

Nain Airstrip
Saint Elizabeth, Jamaica

Public forecast

Using degrees Celsius for public forecast. Weather courtesy of forecast.io.

Closest aviation weather report (METAR) to Nain Airstrip

Closest report is Sangster International Airport, 36.1 nm (66.9 km) NNW. Retrieved 2019/10/21 06:00 UTC (53 minutes ago):

MKJS 210600Z 09004KT 9999 VCTS SCT022 FEW024CB 28/24 Q1013

Closest aviation forecast (TAF) to Nain Airstrip

Closest forecast is Sangster International Airport, 36.1 nm (66.9 km) NNW. Retrieved 2019/10/21 06:16 UTC (37 minutes ago):

TAF MKJS 210515Z 2106/2206 12005KT 9999 FEW020 FEW022CB PROB30 TEMPO 2106/2112 7000 TSRA SCT018 SCT020CB BECMG 2113/2115 05015KT TEMPO 2118/2124 5000 TSRA BKN018CB BECMG 2201/2203 12005KT